Yukon — NYUK — position and weather

sailwx.info

Track history (hours):
 
Tides and Currents Weather Stations Pressure Air Temp Water Temp Dewpoint Dewpoint Depression Visibility Wind Speed Wind Dir Waves Ship Positions

Yukon

Last reported at 2018-Jun-22 15:00 UTC. Time now 2018-Jun-22 15:03 UTC.
Position N 32°36' W 117°59'.

Length 206 m.

Type: Military. MMSI: 367218000.

Date/timePositionNaut miles runAvg speedWind from/ knotsBaromVisibWave heightAir tempDewpointWater temp
2018-Jun-22 15:00N 32°36' W 117°59'4 7.3
2018-Jun-22 14:30N 32°36' W 117°55'1 2.2
2018-Jun-22 14:00N 32°36' W 117°56'4 7.7
2018-Jun-22 13:30N 32°37' W 118°00'4 7.6
2018-Jun-22 13:00N 32°37' W 118°05'3 7.0
2018-Jun-22 12:30N 32°37' W 118°09'4 7.1
2018-Jun-22 12:00N 32°37' W 118°05'3 6.0
2018-Jun-22 11:30N 32°38' W 118°01'2 4.1
2018-Jun-22 10:58N 32°39' W 118°03'3 7.3
2018-Jun-22 10:30N 32°39' W 118°07'4 7.4
2018-Jun-22 10:00N 32°37' W 118°11'4 7.3
2018-Jun-22 09:24N 32°36' W 118°16'3 7.3
2018-Jun-22 09:00N 32°36' W 118°19'2 3.4
2018-Jun-22 08:21N 32°37' W 118°17'4 8.0
2018-Jun-22 07:50N 32°37' W 118°12'3 8.1
2018-Jun-22 07:30N 32°36' W 118°09'4 8.2
2018-Jun-22 07:00N 32°36' W 118°04'4 8.0
2018-Jun-22 06:30N 32°36' W 117°59'4 7.7
2018-Jun-22 06:00N 32°37' W 117°55'4 7.7
2018-Jun-22 05:30N 32°37' W 117°50'4 7.8
2018-Jun-22 05:00N 32°36' W 117°46'4 7.8
2018-Jun-22 04:30N 32°36' W 117°41'4 7.8
2018-Jun-22 04:00N 32°36' W 117°36'4 7.5
2018-Jun-22 03:30N 32°36' W 117°32'4 7.5
2018-Jun-22 03:00N 32°36' W 117°27'4 7.5
2018-Jun-22 02:30N 32°36' W 117°23'7 7.7
2018-Jun-22 01:39N 32°36' W 117°15'212.7
2018-Jun-22 01:30N 32°38' W 117°14'1 0.1
2018-Jun-21 16:50N 32°38' W 117°13'3 9.2
2018-Jun-21 16:30N 32°36' W 117°15'714.6
2018-Jun-21 16:00N 32°37' W 117°24'815.0
2018-Jun-21 15:30N 32°38' W 117°33'714.9
2018-Jun-21 15:00N 32°38' W 117°42'714.7
2018-Jun-21 14:30N 32°39' W 117°50'5 9.4
2018-Jun-21 14:00N 32°39' W 117°56'3 5.7
2018-Jun-21 13:29N 32°39' W 117°60'3 7.0
2018-Jun-21 13:00N 32°39' W 118°04'4 7.1
2018-Jun-21 12:30N 32°39' W 117°59'4 7.6
2018-Jun-21 12:00N 32°39' W 117°55'4 7.8
2018-Jun-21 11:30N 32°38' W 117°50'4 7.7
2018-Jun-21 11:00N 32°38' W 117°46'3 5.0
2018-Jun-21 10:30N 32°38' W 117°49'4 7.1
2018-Jun-21 10:00N 32°38' W 117°53'4 7.2
2018-Jun-21 09:30N 32°38' W 117°57'4 7.2
2018-Jun-21 09:00N 32°37' W 118°01'3 7.0
2018-Jun-21 08:30N 32°37' W 118°05'3 6.9
2018-Jun-21 08:00N 32°37' W 118°09'4 7.0
2018-Jun-21 07:29N 32°37' W 118°14'4 7.2
2018-Jun-21 06:54N 32°37' W 118°19'3 6.5
2018-Jun-21 06:30N 32°37' W 118°22'5 7.3
2018-Jun-21 05:52N 32°36' W 118°17'4 7.5
2018-Jun-21 05:18N 32°37' W 118°11'4 7.5
2018-Jun-21 04:45N 32°36' W 118°07'2 6.8
2018-Jun-21 04:28N 32°36' W 118°04'4 8.0
2018-Jun-21 03:59N 32°36' W 118°09'1113.3
2018-Jun-21 03:09N 32°36' W 118°22'313.2
2018-Jun-21 02:57N 32°36' W 118°25'613.5
2018-Jun-21 02:30N 32°36' W 118°32'713.7
2018-Jun-21 02:00N 32°36' W 118°41'713.0
2018-Jun-21 01:29N 32°36' W 118°49'1 1.7
2018-Jun-21 01:00N 32°36' W 118°48'3316.0
2018-Jun-20 22:58N 32°40' W 118°10'712.4
2018-Jun-20 22:23N 32°41' W 118°19'614.0
2018-Jun-20 21:58N 32°41' W 118°25'713.5
2018-Jun-20 21:29N 32°40' W 118°33'713.4
2018-Jun-20 20:58N 32°40' W 118°42'612.8
2018-Jun-20 20:31N 32°40' W 118°48'5 9.7
2018-Jun-20 20:00N 32°40' W 118°54'17 6.0
2018-Jun-20 17:07N 32°39' W 118°34'8 6.4
2018-Jun-20 15:51N 32°39' W 118°24'2 7.1
2018-Jun-20 15:31N 32°39' W 118°27'7 7.0
2018-Jun-20 14:27N 32°40' W 118°36'3 7.5
2018-Jun-20 14:00N 32°40' W 118°40'4 7.3
2018-Jun-20 13:31N 32°40' W 118°44'4 7.1
2018-Jun-20 12:55N 32°40' W 118°49'3 7.2
2018-Jun-20 12:29N 32°40' W 118°53'16 6.2
2018-Jun-20 09:53N 32°39' W 118°34'3 6.4
2018-Jun-20 09:26N 32°38' W 118°37'3 6.6
2018-Jun-20 09:00N 32°38' W 118°40'4 6.7
2018-Jun-20 08:28N 32°37' W 118°45'3 7.0
2018-Jun-20 08:00N 32°37' W 118°48'4 7.1
2018-Jun-20 07:30N 32°37' W 118°53'3 7.1
2018-Jun-20 07:01N 32°36' W 118°57'4 7.0
2018-Jun-20 06:30N 32°36' W 119°01'4 7.3
2018-Jun-20 05:57N 32°36' W 119°06'4 7.4
2018-Jun-20 05:27N 32°36' W 119°10'3 7.5
2018-Jun-20 05:00N 32°36' W 119°14'4710.4
2018-Jun-20 00:28N 32°36' W 118°18'13 9.3
2018-Jun-19 23:03N 32°36' W 118°03'1 9.1
2018-Jun-19 22:58N 32°36' W 118°02'4 9.3
2018-Jun-19 22:30N 32°36' W 117°57'3 6.5
2018-Jun-19 22:01N 32°36' W 117°53'1 3.0
2018-Jun-19 21:31N 32°37' W 117°51'4 7.4
2018-Jun-19 21:00N 32°37' W 117°56'4 7.2
2018-Jun-19 20:30N 32°37' W 118°00'4 7.0
2018-Jun-19 19:59N 32°36' W 118°04'4 6.9
2018-Jun-19 19:27N 32°36' W 118°09'4 7.0
2018-Jun-19 18:53N 32°36' W 118°13'3 7.2
2018-Jun-19 18:29N 32°36' W 118°17'12 2.5
2018-Jun-19 13:51N 32°36' W 118°03'1 4.1
2018-Jun-19 13:30N 32°37' W 118°05'3 6.9
2018-Jun-19 13:00N 32°37' W 118°09'4 6.9
2018-Jun-19 12:27N 32°36' W 118°13'7 0.9
2018-Jun-19 04:58N 32°36' W 118°05'3 7.0
2018-Jun-19 04:31N 32°37' W 118°02'1 1.7
2018-Jun-19 04:00N 32°36' W 118°02'4 6.7
2018-Jun-19 03:21N 32°36' W 118°07'3 7.4
2018-Jun-19 02:55N 32°36' W 118°11'7 3.5
2018-Jun-19 00:53N 32°36' W 118°03'2 5.1
2018-Jun-19 00:30N 32°36' W 118°05'5 7.6
2018-Jun-18 23:52N 32°36' W 118°11'14 7.3
2018-Jun-18 22:00N 32°36' W 118°27'4 7.2
2018-Jun-18 21:27N 32°36' W 118°32'24 5.7
2018-Jun-18 17:15N 32°37' W 118°03'2 6.9
2018-Jun-18 17:00N 32°37' W 118°01'3 6.8
2018-Jun-18 16:31N 32°37' W 117°57'3 7.0
2018-Jun-18 16:01N 32°37' W 117°53'3 6.7
2018-Jun-18 15:31N 32°37' W 117°49'3 6.5
2018-Jun-18 15:00N 32°36' W 117°46'3 5.9
2018-Jun-18 14:30N 32°37' W 117°49'4 7.1
2018-Jun-18 14:00N 32°36' W 117°53'3 7.0
2018-Jun-18 13:30N 32°36' W 117°57'12 7.0
2018-Jun-18 11:51N 32°36' W 118°11'8 6.2
2018-Jun-18 10:36N 32°36' W 118°02'1 7.3
2018-Jun-18 10:31N 32°36' W 118°01'4 7.2
2018-Jun-18 10:00N 32°36' W 117°57'3 7.0
2018-Jun-18 09:30N 32°36' W 117°53'4 7.2
2018-Jun-18 09:01N 32°36' W 117°48'0 1.0
2018-Jun-18 08:30N 32°36' W 117°49'3 6.6
2018-Jun-18 08:00N 32°36' W 117°53'3 6.8
2018-Jun-18 07:30N 32°36' W 117°57'4 6.8
2018-Jun-18 06:58N 32°36' W 118°01'5 6.5
2018-Jun-18 06:09N 32°36' W 118°07'1 6.6
2018-Jun-18 05:59N 32°36' W 118°08'3 3.4
2018-Jun-18 05:01N 32°36' W 118°05'1 7.1
2018-Jun-18 04:56N 32°36' W 118°04'3 6.8
2018-Jun-18 04:29N 32°37' W 118°00'3 3.2
2018-Jun-18 03:39N 32°36' W 117°58'1 6.7
2018-Jun-18 03:30N 32°36' W 117°59'3 6.8
2018-Jun-18 03:01N 32°36' W 118°03'4 7.0
2018-Jun-18 02:23N 32°35' W 118°08'2 5.8
2018-Jun-18 01:58N 32°37' W 118°10'5 7.0
2018-Jun-18 01:16N 32°36' W 118°16'2 7.0
2018-Jun-18 01:00N 32°36' W 118°18'26 7.3
2018-Jun-17 21:28N 32°36' W 118°49'4 8.1
2018-Jun-17 20:55N 32°36' W 118°54'4 8.1
2018-Jun-17 20:23N 32°36' W 118°60'4 9.4
2018-Jun-17 20:00N 32°35' W 119°04'510.3
2018-Jun-17 19:31N 32°35' W 119°10'1 1.6
2018-Jun-17 19:00N 32°36' W 119°10'19 5.8
2018-Jun-17 15:38N 32°36' W 118°47'2 7.5
2018-Jun-17 15:24N 32°36' W 118°50'3 7.4
2018-Jun-17 14:56N 32°36' W 118°54'9 3.9
2018-Jun-17 12:38N 32°36' W 118°43'1 7.7
2018-Jun-17 12:30N 32°36' W 118°44'4 7.7
2018-Jun-17 12:00N 32°36' W 118°49'4 7.4
2018-Jun-17 11:25N 32°36' W 118°54'3 7.6
2018-Jun-17 10:59N 32°37' W 118°58'14 5.3
2018-Jun-17 08:26N 32°37' W 118°42'1 3.1
2018-Jun-17 07:59N 32°36' W 118°43'4 7.3
2018-Jun-17 07:30N 32°36' W 118°48'4 7.7
2018-Jun-17 06:59N 32°36' W 118°52'4 7.9
2018-Jun-17 06:30N 32°36' W 118°57'4 7.4
2018-Jun-17 05:59N 32°36' W 119°01'4 7.6
2018-Jun-17 05:30N 32°36' W 119°06'4 8.0
2018-Jun-17 05:01N 32°36' W 119°10'4 8.0
2018-Jun-17 04:31N 32°37' W 119°15'510.3
2018-Jun-17 04:00N 32°37' W 119°21'811.6
2018-Jun-17 03:17N 32°38' W 119°11'412.6
2018-Jun-17 02:57N 32°38' W 119°06'713.0
2018-Jun-17 02:24N 32°38' W 118°58'813.5
2018-Jun-17 01:49N 32°38' W 118°48'3012.4
2018-Jun-16 23:23N 32°36' W 118°13'918.0
2018-Jun-16 22:54N 32°36' W 118°23'718.2
2018-Jun-16 22:30N 32°36' W 118°31'1018.5
2018-Jun-16 21:58N 32°36' W 118°43'3 5.7
2018-Jun-16 21:30N 32°36' W 118°46'2913.2
2018-Jun-16 19:20N 32°36' W 118°12'3 8.5
2018-Jun-16 19:00N 32°36' W 118°15'816.3
2018-Jun-16 18:30N 32°38' W 118°25'1018.1
2018-Jun-16 17:58N 32°40' W 118°36'8 9.6
2018-Jun-16 17:08N 32°40' W 118°26'1213.1
2018-Jun-16 16:11N 32°40' W 118°12'511.3
2018-Jun-16 15:44N 32°40' W 118°06'2 7.3
2018-Jun-16 15:30N 32°42' W 118°06'4 8.4
2018-Jun-16 14:59N 32°44' W 118°01'3 6.7
2018-Jun-16 14:30N 32°44' W 117°57'510.8
2018-Jun-16 14:00N 32°42' W 118°03'611.5
2018-Jun-16 13:30N 32°40' W 118°10'5 9.0
2018-Jun-16 13:00N 32°38' W 118°14'4 8.1
2018-Jun-16 12:29N 32°36' W 118°19'4 8.4
2018-Jun-16 12:00N 32°36' W 118°24'4 8.8
2018-Jun-16 11:29N 32°36' W 118°29'4 8.5
2018-Jun-16 10:57N 32°36' W 118°34'4 8.4
2018-Jun-16 10:28N 32°36' W 118°39'4 8.5
2018-Jun-16 10:00N 32°36' W 118°44'4 8.4
2018-Jun-16 09:30N 32°36' W 118°49'4 8.2
2018-Jun-16 09:00N 32°36' W 118°54'2 1.1
2018-Jun-16 07:36N 32°36' W 118°52'3 8.1
2018-Jun-16 07:12N 32°36' W 118°48'3 8.5
2018-Jun-16 06:50N 32°36' W 118°44'4 8.5
2018-Jun-16 06:22N 32°36' W 118°40'3 8.6
2018-Jun-16 06:00N 32°36' W 118°36'4 8.7
2018-Jun-16 05:30N 32°36' W 118°31'5 8.6
2018-Jun-16 04:57N 32°36' W 118°25'4 8.3
2018-Jun-16 04:29N 32°36' W 118°21'9 8.1
2018-Jun-16 03:22N 32°36' W 118°10'3 8.0
2018-Jun-16 03:00N 32°36' W 118°06'4 8.1
2018-Jun-16 02:30N 32°35' W 118°02'4 8.4
2018-Jun-16 02:00N 32°36' W 117°57'510.3
2018-Jun-16 01:31N 32°36' W 117°51'612.1
2018-Jun-16 01:00N 32°35' W 117°43'611.9
2018-Jun-16 00:31N 32°36' W 117°36'611.8
2018-Jun-16 00:00N 32°36' W 117°29'611.4
2018-Jun-15 23:30N 32°36' W 117°23'711.3
2018-Jun-15 22:51N 32°37' W 117°14'5 0.3
2018-Jun-15 03:33N 32°42' W 117°14'0 0.0
2018-Jun-15 03:21N 32°42' W 117°14'0 0.0
2018-Jun-15 02:57N 32°42' W 117°14'0 0.0
2018-Jun-15 02:21N 32°42' W 117°14'2 0.2
2018-Jun-14 16:26N 32°43' W 117°12'1 0.4
2018-Jun-14 14:52N 32°43' W 117°11'0 0.0
2018-Jun-14 13:10N 32°43' W 117°11'0 0.0
2018-Jun-14 12:52N 32°43' W 117°11'0 0.0
2018-Jun-14 12:28N 32°43' W 117°11'0 0.0
2018-Jun-14 09:37N 32°43' W 117°11'0 0.0
2018-Jun-14 09:28N 32°43' W 117°11'0 0.0
2018-Jun-14 00:34N 32°43' W 117°11'0 0.0
2018-Jun-14 00:16N 32°43' W 117°11'0 0.0
2018-Jun-13 23:46N 32°43' W 117°11'0 0.0
2018-Jun-13 23:28N 32°43' W 117°11'0 0.0
2018-Jun-13 22:52N 32°43' W 117°11'0 0.0
2018-Jun-13 22:28N 32°43' W 117°11'0 0.0
2018-Jun-13 19:28N 32°43' W 117°11'0 0.0
2018-Jun-13 18:58N 32°43' W 117°11'0 0.0
2018-Jun-13 18:07N 32°43' W 117°11'0 0.0
2018-Jun-13 17:49N 32°43' W 117°11'0 0.0
2018-Jun-13 17:28N 32°43' W 117°11'0 0.0
2018-Jun-13 16:58N 32°43' W 117°11'0 0.0
2018-Jun-13 15:04N 32°43' W 117°11'0 0.1
2018-Jun-13 14:58N 32°43' W 117°11'0 0.0
2018-Jun-13 10:19N 32°43' W 117°11'0 0.0
2018-Jun-13 08:19N 32°43' W 117°11'0 0.0
2018-Jun-13 05:52N 32°43' W 117°11'0 0.0
2018-Jun-13 05:19N 32°43' W 117°11'0 0.0
2018-Jun-12 23:01N 32°43' W 117°11'0 0.0
2018-Jun-12 22:43N 32°43' W 117°11'0 0.0
2018-Jun-12 22:22N 32°43' W 117°11'0 0.0
2018-Jun-12 21:58N 32°43' W 117°11'0 0.0
2018-Jun-12 21:28N 32°43' W 117°11'0 0.0
2018-Jun-12 20:25N 32°43' W 117°11'  
Track history (hours):
 
Tides and Currents Weather Stations Pressure Air Temp Water Temp Dewpoint Dewpoint Depression Visibility Wind Speed Wind Dir Waves Ship Positions

Yukon

Last reported at 2018-Jun-22 15:00 UTC. Time now 2018-Jun-22 15:03 UTC.
Position N 32°36' W 117°59'.

Length 206 m.

Type: Military. MMSI: 367218000.

Date/timePositionNaut miles runAvg speedWind from/ knotsBaromVisibWave heightAir tempDewpointWater temp
2018-Jun-22 15:00N 32°36' W 117°59'4 7.3
2018-Jun-22 14:30N 32°36' W 117°55'1 2.2
2018-Jun-22 14:00N 32°36' W 117°56'4 7.7
2018-Jun-22 13:30N 32°37' W 118°00'4 7.6
2018-Jun-22 13:00N 32°37' W 118°05'3 7.0
2018-Jun-22 12:30N 32°37' W 118°09'4 7.1
2018-Jun-22 12:00N 32°37' W 118°05'3 6.0
2018-Jun-22 11:30N 32°38' W 118°01'2 4.1
2018-Jun-22 10:58N 32°39' W 118°03'3 7.3
2018-Jun-22 10:30N 32°39' W 118°07'4 7.4
2018-Jun-22 10:00N 32°37' W 118°11'4 7.3
2018-Jun-22 09:24N 32°36' W 118°16'3 7.3
2018-Jun-22 09:00N 32°36' W 118°19'2 3.4
2018-Jun-22 08:21N 32°37' W 118°17'4 8.0
2018-Jun-22 07:50N 32°37' W 118°12'3 8.1
2018-Jun-22 07:30N 32°36' W 118°09'4 8.2
2018-Jun-22 07:00N 32°36' W 118°04'4 8.0
2018-Jun-22 06:30N 32°36' W 117°59'4 7.7
2018-Jun-22 06:00N 32°37' W 117°55'4 7.7
2018-Jun-22 05:30N 32°37' W 117°50'4 7.8
2018-Jun-22 05:00N 32°36' W 117°46'4 7.8
2018-Jun-22 04:30N 32°36' W 117°41'4 7.8
2018-Jun-22 04:00N 32°36' W 117°36'4 7.5
2018-Jun-22 03:30N 32°36' W 117°32'4 7.5
2018-Jun-22 03:00N 32°36' W 117°27'4 7.5
2018-Jun-22 02:30N 32°36' W 117°23'7 7.7
2018-Jun-22 01:39N 32°36' W 117°15'212.7
2018-Jun-22 01:30N 32°38' W 117°14'1 0.1
2018-Jun-21 16:50N 32°38' W 117°13'3 9.2
2018-Jun-21 16:30N 32°36' W 117°15'714.6
2018-Jun-21 16:00N 32°37' W 117°24'815.0
2018-Jun-21 15:30N 32°38' W 117°33'714.9
2018-Jun-21 15:00N 32°38' W 117°42'714.7
2018-Jun-21 14:30N 32°39' W 117°50'5 9.4
2018-Jun-21 14:00N 32°39' W 117°56'3 5.7
2018-Jun-21 13:29N 32°39' W 117°60'3 7.0
2018-Jun-21 13:00N 32°39' W 118°04'4 7.1
2018-Jun-21 12:30N 32°39' W 117°59'4 7.6
2018-Jun-21 12:00N 32°39' W 117°55'4 7.8
2018-Jun-21 11:30N 32°38' W 117°50'4 7.7
2018-Jun-21 11:00N 32°38' W 117°46'3 5.0
2018-Jun-21 10:30N 32°38' W 117°49'4 7.1
2018-Jun-21 10:00N 32°38' W 117°53'4 7.2
2018-Jun-21 09:30N 32°38' W 117°57'4 7.2
2018-Jun-21 09:00N 32°37' W 118°01'3 7.0
2018-Jun-21 08:30N 32°37' W 118°05'3 6.9
2018-Jun-21 08:00N 32°37' W 118°09'4 7.0
2018-Jun-21 07:29N 32°37' W 118°14'4 7.2
2018-Jun-21 06:54N 32°37' W 118°19'3 6.5
2018-Jun-21 06:30N 32°37' W 118°22'5 7.3
2018-Jun-21 05:52N 32°36' W 118°17'4 7.5
2018-Jun-21 05:18N 32°37' W 118°11'4 7.5
2018-Jun-21 04:45N 32°36' W 118°07'2 6.8
2018-Jun-21 04:28N 32°36' W 118°04'4 8.0
2018-Jun-21 03:59N 32°36' W 118°09'1113.3
2018-Jun-21 03:09N 32°36' W 118°22'313.2
2018-Jun-21 02:57N 32°36' W 118°25'613.5
2018-Jun-21 02:30N 32°36' W 118°32'713.7
2018-Jun-21 02:00N 32°36' W 118°41'713.0
2018-Jun-21 01:29N 32°36' W 118°49'1 1.7
2018-Jun-21 01:00N 32°36' W 118°48'3316.0
2018-Jun-20 22:58N 32°40' W 118°10'712.4
2018-Jun-20 22:23N 32°41' W 118°19'614.0
2018-Jun-20 21:58N 32°41' W 118°25'713.5
2018-Jun-20 21:29N 32°40' W 118°33'713.4
2018-Jun-20 20:58N 32°40' W 118°42'612.8
2018-Jun-20 20:31N 32°40' W 118°48'5 9.7
2018-Jun-20 20:00N 32°40' W 118°54'17 6.0
2018-Jun-20 17:07N 32°39' W 118°34'8 6.4
2018-Jun-20 15:51N 32°39' W 118°24'2 7.1
2018-Jun-20 15:31N 32°39' W 118°27'7 7.0
2018-Jun-20 14:27N 32°40' W 118°36'3 7.5
2018-Jun-20 14:00N 32°40' W 118°40'4 7.3
2018-Jun-20 13:31N 32°40' W 118°44'4 7.1
2018-Jun-20 12:55N 32°40' W 118°49'3 7.2
2018-Jun-20 12:29N 32°40' W 118°53'16 6.2
2018-Jun-20 09:53N 32°39' W 118°34'3 6.4
2018-Jun-20 09:26N 32°38' W 118°37'3 6.6
2018-Jun-20 09:00N 32°38' W 118°40'4 6.7
2018-Jun-20 08:28N 32°37' W 118°45'3 7.0
2018-Jun-20 08:00N 32°37' W 118°48'4 7.1
2018-Jun-20 07:30N 32°37' W 118°53'3 7.1
2018-Jun-20 07:01N 32°36' W 118°57'4 7.0
2018-Jun-20 06:30N 32°36' W 119°01'4 7.3
2018-Jun-20 05:57N 32°36' W 119°06'4 7.4
2018-Jun-20 05:27N 32°36' W 119°10'3 7.5
2018-Jun-20 05:00N 32°36' W 119°14'4710.4
2018-Jun-20 00:28N 32°36' W 118°18'13 9.3
2018-Jun-19 23:03N 32°36' W 118°03'1 9.1
2018-Jun-19 22:58N 32°36' W 118°02'4 9.3
2018-Jun-19 22:30N 32°36' W 117°57'3 6.5
2018-Jun-19 22:01N 32°36' W 117°53'1 3.0
2018-Jun-19 21:31N 32°37' W 117°51'4 7.4
2018-Jun-19 21:00N 32°37' W 117°56'4 7.2
2018-Jun-19 20:30N 32°37' W 118°00'4 7.0
2018-Jun-19 19:59N 32°36' W 118°04'4 6.9
2018-Jun-19 19:27N 32°36' W 118°09'4 7.0
2018-Jun-19 18:53N 32°36' W 118°13'3 7.2
2018-Jun-19 18:29N 32°36' W 118°17'12 2.5
2018-Jun-19 13:51N 32°36' W 118°03'1 4.1
2018-Jun-19 13:30N 32°37' W 118°05'3 6.9
2018-Jun-19 13:00N 32°37' W 118°09'4 6.9
2018-Jun-19 12:27N 32°36' W 118°13'7 0.9
2018-Jun-19 04:58N 32°36' W 118°05'3 7.0
2018-Jun-19 04:31N 32°37' W 118°02'1 1.7
2018-Jun-19 04:00N 32°36' W 118°02'4 6.7
2018-Jun-19 03:21N 32°36' W 118°07'3 7.4
2018-Jun-19 02:55N 32°36' W 118°11'7 3.5
2018-Jun-19 00:53N 32°36' W 118°03'2 5.1
2018-Jun-19 00:30N 32°36' W 118°05'5 7.6
2018-Jun-18 23:52N 32°36' W 118°11'14 7.3
2018-Jun-18 22:00N 32°36' W 118°27'4 7.2
2018-Jun-18 21:27N 32°36' W 118°32'24 5.7
2018-Jun-18 17:15N 32°37' W 118°03'2 6.9
2018-Jun-18 17:00N 32°37' W 118°01'3 6.8
2018-Jun-18 16:31N 32°37' W 117°57'3 7.0
2018-Jun-18 16:01N 32°37' W 117°53'3 6.7
2018-Jun-18 15:31N 32°37' W 117°49'3 6.5
2018-Jun-18 15:00N 32°36' W 117°46'3 5.9
2018-Jun-18 14:30N 32°37' W 117°49'4 7.1
2018-Jun-18 14:00N 32°36' W 117°53'3 7.0
2018-Jun-18 13:30N 32°36' W 117°57'12 7.0
2018-Jun-18 11:51N 32°36' W 118°11'8 6.2
2018-Jun-18 10:36N 32°36' W 118°02'1 7.3
2018-Jun-18 10:31N 32°36' W 118°01'4 7.2
2018-Jun-18 10:00N 32°36' W 117°57'3 7.0
2018-Jun-18 09:30N 32°36' W 117°53'4 7.2
2018-Jun-18 09:01N 32°36' W 117°48'0 1.0
2018-Jun-18 08:30N 32°36' W 117°49'3 6.6
2018-Jun-18 08:00N 32°36' W 117°53'3 6.8
2018-Jun-18 07:30N 32°36' W 117°57'4 6.8
2018-Jun-18 06:58N 32°36' W 118°01'5 6.5
2018-Jun-18 06:09N 32°36' W 118°07'1 6.6
2018-Jun-18 05:59N 32°36' W 118°08'3 3.4
2018-Jun-18 05:01N 32°36' W 118°05'1 7.1
2018-Jun-18 04:56N 32°36' W 118°04'3 6.8
2018-Jun-18 04:29N 32°37' W 118°00'3 3.2
2018-Jun-18 03:39N 32°36' W 117°58'1 6.7
2018-Jun-18 03:30N 32°36' W 117°59'3 6.8
2018-Jun-18 03:01N 32°36' W 118°03'4 7.0
2018-Jun-18 02:23N 32°35' W 118°08'2 5.8
2018-Jun-18 01:58N 32°37' W 118°10'5 7.0
2018-Jun-18 01:16N 32°36' W 118°16'2 7.0
2018-Jun-18 01:00N 32°36' W 118°18'26 7.3
2018-Jun-17 21:28N 32°36' W 118°49'4 8.1
2018-Jun-17 20:55N 32°36' W 118°54'4 8.1
2018-Jun-17 20:23N 32°36' W 118°60'4 9.4
2018-Jun-17 20:00N 32°35' W 119°04'510.3
2018-Jun-17 19:31N 32°35' W 119°10'1 1.6
2018-Jun-17 19:00N 32°36' W 119°10'19 5.8
2018-Jun-17 15:38N 32°36' W 118°47'2 7.5
2018-Jun-17 15:24N 32°36' W 118°50'3 7.4
2018-Jun-17 14:56N 32°36' W 118°54'9 3.9
2018-Jun-17 12:38N 32°36' W 118°43'1 7.7
2018-Jun-17 12:30N 32°36' W 118°44'4 7.7
2018-Jun-17 12:00N 32°36' W 118°49'4 7.4
2018-Jun-17 11:25N 32°36' W 118°54'3 7.6
2018-Jun-17 10:59N 32°37' W 118°58'14 5.3
2018-Jun-17 08:26N 32°37' W 118°42'1 3.1
2018-Jun-17 07:59N 32°36' W 118°43'4 7.3
2018-Jun-17 07:30N 32°36' W 118°48'4 7.7
2018-Jun-17 06:59N 32°36' W 118°52'4 7.9
2018-Jun-17 06:30N 32°36' W 118°57'4 7.4
2018-Jun-17 05:59N 32°36' W 119°01'4 7.6
2018-Jun-17 05:30N 32°36' W 119°06'4 8.0
2018-Jun-17 05:01N 32°36' W 119°10'4 8.0
2018-Jun-17 04:31N 32°37' W 119°15'510.3
2018-Jun-17 04:00N 32°37' W 119°21'811.6
2018-Jun-17 03:17N 32°38' W 119°11'412.6
2018-Jun-17 02:57N 32°38' W 119°06'713.0
2018-Jun-17 02:24N 32°38' W 118°58'813.5
2018-Jun-17 01:49N 32°38' W 118°48'3012.4
2018-Jun-16 23:23N 32°36' W 118°13'918.0
2018-Jun-16 22:54N 32°36' W 118°23'718.2
2018-Jun-16 22:30N 32°36' W 118°31'1018.5
2018-Jun-16 21:58N 32°36' W 118°43'3 5.7
2018-Jun-16 21:30N 32°36' W 118°46'2913.2
2018-Jun-16 19:20N 32°36' W 118°12'3 8.5
2018-Jun-16 19:00N 32°36' W 118°15'816.3
2018-Jun-16 18:30N 32°38' W 118°25'1018.1
2018-Jun-16 17:58N 32°40' W 118°36'8 9.6
2018-Jun-16 17:08N 32°40' W 118°26'1213.1
2018-Jun-16 16:11N 32°40' W 118°12'511.3
2018-Jun-16 15:44N 32°40' W 118°06'2 7.3
2018-Jun-16 15:30N 32°42' W 118°06'4 8.4
2018-Jun-16 14:59N 32°44' W 118°01'3 6.7
2018-Jun-16 14:30N 32°44' W 117°57'510.8
2018-Jun-16 14:00N 32°42' W 118°03'611.5
2018-Jun-16 13:30N 32°40' W 118°10'5 9.0
2018-Jun-16 13:00N 32°38' W 118°14'4 8.1
2018-Jun-16 12:29N 32°36' W 118°19'4 8.4
2018-Jun-16 12:00N 32°36' W 118°24'4 8.8
2018-Jun-16 11:29N 32°36' W 118°29'4 8.5
2018-Jun-16 10:57N 32°36' W 118°34'4 8.4
2018-Jun-16 10:28N 32°36' W 118°39'4 8.5
2018-Jun-16 10:00N 32°36' W 118°44'4 8.4
2018-Jun-16 09:30N 32°36' W 118°49'4 8.2
2018-Jun-16 09:00N 32°36' W 118°54'2 1.1
2018-Jun-16 07:36N 32°36' W 118°52'3 8.1
2018-Jun-16 07:12N 32°36' W 118°48'3 8.5
2018-Jun-16 06:50N 32°36' W 118°44'4 8.5
2018-Jun-16 06:22N 32°36' W 118°40'3 8.6
2018-Jun-16 06:00N 32°36' W 118°36'4 8.7
2018-Jun-16 05:30N 32°36' W 118°31'5 8.6
2018-Jun-16 04:57N 32°36' W 118°25'4 8.3
2018-Jun-16 04:29N 32°36' W 118°21'9 8.1
2018-Jun-16 03:22N 32°36' W 118°10'3 8.0
2018-Jun-16 03:00N 32°36' W 118°06'4 8.1
2018-Jun-16 02:30N 32°35' W 118°02'4 8.4
2018-Jun-16 02:00N 32°36' W 117°57'510.3
2018-Jun-16 01:31N 32°36' W 117°51'612.1
2018-Jun-16 01:00N 32°35' W 117°43'611.9
2018-Jun-16 00:31N 32°36' W 117°36'611.8
2018-Jun-16 00:00N 32°36' W 117°29'611.4
2018-Jun-15 23:30N 32°36' W 117°23'711.3
2018-Jun-15 22:51N 32°37' W 117°14'5 0.3
2018-Jun-15 03:33N 32°42' W 117°14'0 0.0
2018-Jun-15 03:21N 32°42' W 117°14'0 0.0
2018-Jun-15 02:57N 32°42' W 117°14'0 0.0
2018-Jun-15 02:21N 32°42' W 117°14'2 0.2
2018-Jun-14 16:26N 32°43' W 117°12'1 0.4
2018-Jun-14 14:52N 32°43' W 117°11'0 0.0
2018-Jun-14 13:10N 32°43' W 117°11'0 0.0
2018-Jun-14 12:52N 32°43' W 117°11'0 0.0
2018-Jun-14 12:28N 32°43' W 117°11'0 0.0
2018-Jun-14 09:37N 32°43' W 117°11'0 0.0
2018-Jun-14 09:28N 32°43' W 117°11'0 0.0
2018-Jun-14 00:34N 32°43' W 117°11'0 0.0
2018-Jun-14 00:16N 32°43' W 117°11'0 0.0
2018-Jun-13 23:46N 32°43' W 117°11'0 0.0
2018-Jun-13 23:28N 32°43' W 117°11'0 0.0
2018-Jun-13 22:52N 32°43' W 117°11'0 0.0
2018-Jun-13 22:28N 32°43' W 117°11'0 0.0
2018-Jun-13 19:28N 32°43' W 117°11'0 0.0
2018-Jun-13 18:58N 32°43' W 117°11'0 0.0
2018-Jun-13 18:07N 32°43' W 117°11'0 0.0
2018-Jun-13 17:49N 32°43' W 117°11'0 0.0
2018-Jun-13 17:28N 32°43' W 117°11'0 0.0
2018-Jun-13 16:58N 32°43' W 117°11'0 0.0
2018-Jun-13 15:04N 32°43' W 117°11'0 0.1
2018-Jun-13 14:58N 32°43' W 117°11'0 0.0
2018-Jun-13 10:19N 32°43' W 117°11'0 0.0
2018-Jun-13 08:19N 32°43' W 117°11'0 0.0
2018-Jun-13 05:52N 32°43' W 117°11'0 0.0
2018-Jun-13 05:19N 32°43' W 117°11'0 0.0
2018-Jun-12 23:01N 32°43' W 117°11'0 0.0
2018-Jun-12 22:43N 32°43' W 117°11'0 0.0
2018-Jun-12 22:22N 32°43' W 117°11'0 0.0
2018-Jun-12 21:58N 32°43' W 117°11'0 0.0
2018-Jun-12 21:28N 32°43' W 117°11'0 0.0
2018-Jun-12 20:25N 32°43' W 117°11'  

Dump ship's entire track history